Time;durP1;ratioP1;P1;durP2;ratioP2;P2;SDS_P1;SDS_P2;PMS_P1;PMS_P2;Temp;Humidity;BMP_temperature;BMP_pressure;BME280_temperature;BME280_humidity;BME280_pressure;Samples;Min_cycle;Max_cycle;Signal;HPM_P1;HPM_P2
2021/12/28 00:00:05;;;;;;;5.28;1.50;;;19.50;68.20;;;;;;5031478;28;20042;-66
2021/12/28 00:02:32;;;;;;;15.07;1.45;;;19.50;67.50;;;;;;5021873;28;20488;-66
2021/12/28 00:04:59;;;;;;;7.90;1.65;;;19.50;65.50;;;;;;4997904;28;20033;-66
2021/12/28 00:07:26;;;;;;;7.78;1.60;;;19.60;66.70;;;;;;5027383;28;20048;-67
2021/12/28 00:09:53;;;;;;;7.57;1.40;;;19.70;64.90;;;;;;4997568;28;20503;-66
2021/12/28 00:12:21;;;;;;;7.70;1.50;;;19.70;66.60;;;;;;5010532;28;20451;-67
2021/12/28 00:15:03;;;;;;;4.28;1.15;;;19.80;66.20;;;;;;5025998;28;20496;-67
2021/12/28 00:20:16;;;;;;;12.18;2.13;;;19.80;69.00;;;;;;5032397;28;20084;-67
2021/12/28 00:22:43;;;;;;;9.20;1.98;;;19.50;75.10;;;;;;5034141;28;20549;-67
2021/12/28 00:25:11;;;;;;;8.30;1.65;;;19.10;78.20;;;;;;5035335;28;20034;-68
2021/12/28 00:27:39;;;;;;;9.18;1.50;;;18.80;80.00;;;;;;5018119;28;20440;-68
2021/12/28 00:30:07;;;;;;;8.13;1.38;;;18.60;81.60;;;;;;5033037;28;20396;-67
2021/12/28 00:32:34;;;;;;;4.78;1.27;;;18.50;82.00;;;;;;5031037;28;20030;-67
2021/12/28 00:35:01;;;;;;;6.80;1.58;;;18.40;79.10;;;;;;5006289;28;20111;-66
2021/12/28 00:37:28;;;;;;;5.53;1.17;;;18.40;77.60;;;;;;5034271;28;20041;-66
2021/12/28 00:39:55;;;;;;;5.63;1.23;;;18.50;78.00;;;;;;5008503;28;20448;-66
2021/12/28 00:42:23;;;;;;;4.72;1.20;;;18.80;77.60;;;;;;5017979;28;20037;-68
2021/12/28 00:44:50;;;;;;;4.32;1.13;;;19.10;74.90;;;;;;5034847;28;20033;-68
2021/12/28 00:47:17;;;;;;;4.72;1.30;;;19.20;75.30;;;;;;5017389;28;20386;-68
2021/12/28 00:49:45;;;;;;;6.65;1.40;;;19.30;73.30;;;;;;5007419;28;20507;-68
2021/12/28 00:52:12;;;;;;;6.00;1.33;;;19.50;75.70;;;;;;5028266;28;20026;-69
2021/12/28 00:54:39;;;;;;;9.57;1.63;;;19.50;75.40;;;;;;4997493;28;20030;-69
2021/12/28 00:57:06;;;;;;;9.65;1.60;;;19.60;75.20;;;;;;5015098;28;20041;-69
2021/12/28 00:59:34;;;;;;;7.82;2.92;;;19.70;76.70;;;;;;4997250;28;20065;-68
2021/12/28 01:02:01;;;;;;;9.38;1.52;;;19.70;75.40;;;;;;5018474;28;20091;-68
2021/12/28 01:04:28;;;;;;;8.57;2.55;;;19.60;73.60;;;;;;5034042;28;20048;-68
2021/12/28 01:06:55;;;;;;;5.97;1.63;;;19.60;73.40;;;;;;5034559;28;20040;-68
2021/12/28 01:09:29;;;;;;;4.15;1.27;;;19.60;76.30;;;;;;5023654;28;20033;-68
2021/12/28 01:12:00;;;;;;;7.82;1.40;;;19.50;76.40;;;;;;5014330;28;20117;-69
2021/12/28 01:14:27;;;;;;;7.70;1.50;;;19.50;77.30;;;;;;4996999;28;20041;-69
2021/12/28 01:16:54;;;;;;;4.28;1.30;;;19.30;79.00;;;;;;5026008;28;20032;-69
2021/12/28 01:19:21;;;;;;;4.32;1.27;;;19.20;81.20;;;;;;5016307;28;20038;-69
2021/12/28 01:21:49;;;;;;;6.75;1.70;;;19.00;82.00;;;;;;5014972;28;20030;-69
2021/12/28 01:24:18;;;;;;;6.72;1.60;;;18.70;83.10;;;;;;5033682;28;20078;-69
2021/12/28 01:26:46;;;;;;;7.57;1.52;;;18.50;85.40;;;;;;5034160;28;20168;-69
2021/12/28 01:29:13;;;;;;;8.65;2.20;;;18.40;86.20;;;;;;5032609;28;20048;-68
2021/12/28 01:31:40;;;;;;;5.32;1.73;;;18.20;87.20;;;;;;5033661;28;20067;-68
2021/12/28 01:34:08;;;;;;;5.80;1.58;;;17.80;86.70;;;;;;5015794;28;20187;-69
2021/12/28 01:36:35;;;;;;;5.47;1.55;;;17.60;87.60;;;;;;5008616;28;20083;-69
2021/12/28 01:39:04;;;;;;;10.40;1.73;;;17.60;88.80;;;;;;4996437;28;20041;-68
2021/12/28 01:41:31;;;;;;;9.75;1.55;;;17.40;88.70;;;;;;5013533;28;20112;-68
2021/12/28 01:44:00;;;;;;;9.30;1.67;;;17.20;88.50;;;;;;5013879;28;20073;-67
2021/12/28 01:46:27;;;;;;;9.90;1.60;;;17.20;89.80;;;;;;5014016;28;20036;-68
2021/12/28 01:48:54;;;;;;;5.60;1.75;;;17.10;89.40;;;;;;5013814;28;20381;-67
2021/12/28 01:51:23;;;;;;;11.98;2.00;;;17.00;90.10;;;;;;5013704;28;20072;-67
2021/12/28 01:53:52;;;;;;;11.43;2.05;;;17.00;90.50;;;;;;5013790;28;20080;-67
2021/12/28 01:56:34;;;;;;;8.13;1.48;;;17.00;91.20;;;;;;4996723;28;20407;-67
2021/12/28 01:59:01;;;;;;;7.80;1.83;;;16.90;91.00;;;;;;5014099;28;20383;-67
2021/12/28 02:01:28;;;;;;;8.90;2.00;;;16.90;91.50;;;;;;5013598;28;20116;-67
2021/12/28 02:03:55;;;;;;;14.70;1.83;;;16.90;91.60;;;;;;5013692;28;20142;-68
2021/12/28 02:06:25;;;;;;;11.77;2.28;;;16.90;90.90;;;;;;5013278;28;20076;-67
2021/12/28 02:08:53;;;;;;;17.20;3.10;;;16.90;91.80;;;;;;5013526;28;20058;-69
2021/12/28 02:11:20;;;;;;;12.77;2.75;;;16.70;90.90;;;;;;4996194;28;20058;-67
2021/12/28 02:13:48;;;;;;;10.23;1.50;;;16.70;91.80;;;;;;4995498;28;20083;-67
2021/12/28 02:16:15;;;;;;;9.65;2.17;;;16.60;91.20;;;;;;5013294;28;20326;-67
2021/12/28 02:18:43;;;;;;;8.73;1.92;;;16.60;91.30;;;;;;4996125;28;20042;-67
2021/12/28 02:21:10;;;;;;;12.57;2.35;;;16.70;92.00;;;;;;5013267;28;20475;-67
2021/12/28 02:23:37;;;;;;;11.63;2.20;;;16.70;92.30;;;;;;5012762;28;20041;-66
2021/12/28 02:26:05;;;;;;;8.23;2.17;;;16.80;92.50;;;;;;5012790;28;20084;-66
2021/12/28 02:28:32;;;;;;;8.90;1.67;;;17.00;93.10;;;;;;5012759;28;20041;-66
2021/12/28 08:33:24;;;;;;;4.68;1.58;;;18.90;72.80;;;;;;5013634;28;20049;-66
2021/12/28 08:35:51;;;;;;;8.45;1.60;;;18.90;72.80;;;;;;5015399;28;20046;-66
2021/12/28 08:38:18;;;;;;;7.60;1.63;;;18.90;72.70;;;;;;5015325;28;20029;-67
2021/12/28 08:40:46;;;;;;;8.20;1.80;;;18.80;74.10;;;;;;5014683;28;20435;-67
2021/12/28 08:43:13;;;;;;;9.27;1.98;;;18.80;74.30;;;;;;5015084;28;20030;-67
2021/12/28 08:45:41;;;;;;;9.95;1.85;;;18.80;74.00;;;;;;4981733;28;20041;-67
2021/12/28 08:48:10;;;;;;;7.85;1.67;;;18.80;73.80;;;;;;5015152;28;20033;-67
2021/12/28 08:50:38;;;;;;;8.43;1.50;;;18.80;74.00;;;;;;5015038;28;20052;-66
2021/12/28 08:53:05;;;;;;;7.75;1.38;;;18.70;74.20;;;;;;4997792;28;20041;-67
2021/12/28 08:55:33;;;;;;;6.50;1.45;;;18.60;74.50;;;;;;5014655;28;20125;-66
2021/12/28 08:58:00;;;;;;;6.70;1.70;;;18.60;74.10;;;;;;5014899;28;20494;-66
2021/12/28 09:00:29;;;;;;;6.47;1.13;;;18.60;75.00;;;;;;5014660;28;20045;-66
2021/12/28 09:02:56;;;;;;;5.70;1.40;;;18.50;74.70;;;;;;5014977;28;20399;-67
2021/12/28 09:05:24;;;;;;;13.05;1.85;;;18.50;75.00;;;;;;5015086;28;20476;-67
2021/12/28 09:07:52;;;;;;;3.72;1.20;;;18.50;74.40;;;;;;5014819;28;20038;-67
2021/12/28 09:10:19;;;;;;;6.55;1.50;;;18.50;74.40;;;;;;5014572;28;20042;-67
2021/12/28 09:12:46;;;;;;;9.95;1.83;;;18.50;74.00;;;;;;5014652;28;20026;-67
2021/12/28 09:15:14;;;;;;;12.82;1.70;;;18.50;74.30;;;;;;5014527;28;20030;-67
2021/12/28 09:17:41;;;;;;;6.22;1.35;;;18.60;74.40;;;;;;4997281;28;20030;-67
2021/12/28 09:20:14;;;;;;;8.05;1.73;;;18.50;74.50;;;;;;4997085;28;20465;-67
2021/12/28 09:22:42;;;;;;;9.65;1.58;;;18.50;74.50;;;;;;5014209;28;20033;-67
2021/12/28 09:25:09;;;;;;;5.85;1.55;;;18.40;74.70;;;;;;5014196;28;20497;-67
2021/12/28 09:27:38;;;;;;;5.10;2.00;;;18.40;74.70;;;;;;4996807;28;20037;-67
2021/12/28 09:30:06;;;;;;;8.85;1.67;;;18.50;74.20;;;;;;5014112;28;20124;-66
2021/12/28 09:32:33;;;;;;;7.22;1.65;;;18.50;74.70;;;;;;5025717;28;20056;-67
2021/12/28 09:35:01;;;;;;;6.88;1.40;;;18.50;74.60;;;;;;5016079;28;20041;-67
2021/12/28 09:37:28;;;;;;;8.60;1.70;;;18.50;74.50;;;;;;5033964;28;20121;-66
2021/12/28 09:39:57;;;;;;;7.90;1.80;;;18.40;74.00;;;;;;5033931;28;20063;-68
2021/12/28 09:42:24;;;;;;;6.40;1.17;;;18.40;74.50;;;;;;5033959;28;20033;-67
2021/12/28 09:44:52;;;;;;;7.88;1.63;;;18.40;75.20;;;;;;5015535;28;20091;-67
2021/12/28 09:47:19;;;;;;;7.97;1.35;;;18.40;76.00;;;;;;5033566;28;20037;-67
2021/12/28 09:49:47;;;;;;;10.57;1.92;;;18.40;76.70;;;;;;5033590;28;20468;-67
2021/12/28 09:52:14;;;;;;;7.93;1.65;;;18.40;78.10;;;;;;5033560;28;20030;-67
2021/12/28 09:54:41;;;;;;;7.85;1.33;;;18.30;77.20;;;;;;5033773;28;20034;-67
2021/12/28 09:57:08;;;;;;;7.80;1.45;;;18.30;77.40;;;;;;5033674;28;20100;-67
2021/12/28 09:59:36;;;;;;;16.70;1.88;;;18.20;77.40;;;;;;5033285;28;20076;-67
2021/12/28 10:02:09;;;;;;;9.38;1.65;;;18.30;76.10;;;;;;5015574;28;20087;-67
2021/12/28 10:04:56;;;;;;;7.75;1.50;;;18.30;76.70;;;;;;5033269;28;20555;-67
2021/12/28 10:07:25;;;;;;;7.72;1.58;;;18.30;77.40;;;;;;5033069;28;20032;-67
2021/12/28 10:09:53;;;;;;;7.78;1.45;;;18.40;75.60;;;;;;5033162;28;20472;-67
2021/12/28 10:12:31;;;;;;;6.88;1.80;;;18.40;75.80;;;;;;5015856;28;20029;-67
2021/12/28 10:15:03;;;;;;;7.63;1.42;;;18.50;74.90;;;;;;5033020;28;20500;-67
2021/12/28 10:17:31;;;;;;;8.45;1.50;;;18.50;75.10;;;;;;5016109;28;20033;-67
2021/12/28 10:19:59;;;;;;;4.93;1.45;;;18.50;74.80;;;;;;5015388;28;20038;-67
2021/12/28 10:22:37;;;;;;;5.72;1.67;;;18.50;74.80;;;;;;5032739;28;20099;-67
2021/12/28 10:25:34;;;;;;;6.80;2.17;;;18.50;74.50;;;;;;4998976;28;20033;-67
2021/12/28 10:28:06;;;;;;;8.10;1.70;;;18.60;74.40;;;;;;5015304;28;20042;-67
2021/12/28 10:30:40;;;;;;;7.70;2.30;;;18.60;73.70;;;;;;5032851;28;20041;-67
2021/12/28 10:33:09;;;;;;;14.15;1.83;;;18.60;73.80;;;;;;4999558;28;20061;-67
2021/12/28 10:35:44;;;;;;;8.40;1.70;;;18.70;72.30;;;;;;5032571;28;20043;-67
2021/12/28 10:38:16;;;;;;;7.68;1.65;;;18.70;73.20;;;;;;5015976;28;20029;-68
2021/12/28 10:40:49;;;;;;;6.88;1.85;;;18.70;72.40;;;;;;5015882;28;20065;-67
2021/12/28 10:43:21;;;;;;;4.70;1.35;;;18.70;71.30;;;;;;5032625;28;20029;-67
2021/12/28 10:45:51;;;;;;;5.80;1.42;;;18.80;71.50;;;;;;5032684;28;20172;-67
2021/12/28 10:48:20;;;;;;;7.65;1.73;;;18.80;71.70;;;;;;5015392;28;20025;-67
2021/12/28 10:50:55;;;;;;;6.97;1.42;;;18.80;71.50;;;;;;5032912;28;20044;-68
2021/12/28 10:53:24;;;;;;;7.13;1.40;;;18.80;70.50;;;;;;5015479;28;20041;-67
2021/12/28 10:55:58;;;;;;;5.63;1.50;;;18.80;70.70;;;;;;5031472;28;20029;-68
2021/12/28 10:58:39;;;;;;;7.90;1.40;;;18.80;71.40;;;;;;5032839;28;20037;-67
2021/12/28 11:01:15;;;;;;;7.07;1.27;;;18.80;71.00;;;;;;5032588;28;20083;-67
2021/12/28 11:03:46;;;;;;;4.05;1.33;;;18.80;70.60;;;;;;5015815;28;20438;-67
2021/12/28 11:06:17;;;;;;;6.07;1.70;;;18.80;71.30;;;;;;5032512;28;20079;-67
2021/12/28 11:08:45;;;;;;;4.32;1.30;;;18.80;71.00;;;;;;5032108;28;20038;-67
2021/12/28 11:11:14;;;;;;;6.45;1.45;;;18.80;70.50;;;;;;5032148;28;20041;-68
2021/12/28 11:13:41;;;;;;;6.20;1.60;;;18.80;70.60;;;;;;5032183;28;20075;-67
2021/12/28 11:16:10;;;;;;;5.95;1.50;;;18.70;70.30;;;;;;5014838;28;20034;-67
2021/12/28 11:18:48;;;;;;;6.53;1.60;;;18.80;71.00;;;;;;5032317;28;20101;-67
2021/12/28 11:21:55;;;;;;;6.10;1.55;;;18.70;71.00;;;;;;5032526;28;20041;-67
2021/12/28 11:24:23;;;;;;;9.35;1.40;;;18.70;71.20;;;;;;5031419;28;20108;-67
2021/12/28 11:26:51;;;;;;;5.13;1.40;;;18.70;70.00;;;;;;5014155;28;20095;-67
2021/12/28 11:29:23;;;;;;;7.80;1.60;;;18.70;69.90;;;;;;5014319;28;20095;-67
2021/12/28 11:31:52;;;;;;;6.53;1.42;;;18.70;70.30;;;;;;5031812;28;20064;-68
2021/12/28 11:34:30;;;;;;;9.40;1.40;;;18.70;70.50;;;;;;5031753;28;20179;-67
2021/12/28 11:37:00;;;;;;;8.60;1.60;;;18.60;70.70;;;;;;5031904;28;20041;-68
2021/12/28 11:39:29;;;;;;;10.07;1.50;;;18.70;70.90;;;;;;4997861;28;20034;-68
2021/12/28 11:41:56;;;;;;;13.60;2.78;;;18.70;71.30;;;;;;5031894;28;20041;-67
2021/12/28 11:44:24;;;;;;;7.90;1.48;;;18.60;70.90;;;;;;5031862;28;20032;-68
2021/12/28 11:46:52;;;;;;;6.07;1.45;;;18.60;71.50;;;;;;5031626;28;20045;-67
2021/12/28 11:49:22;;;;;;;9.13;1.80;;;18.60;71.50;;;;;;5031641;28;20411;-67
2021/12/28 11:51:49;;;;;;;;;;;18.70;71.30;;;;;;5032138;28;20040;-67
2021/12/28 11:54:17;;;;;;;9.05;1.55;;;18.70;70.80;;;;;;5032063;28;19905;-67
2021/12/28 11:56:49;;;;;;;5.82;1.20;;;18.60;71.30;;;;;;5031537;28;20053;-67
2021/12/28 11:59:28;;;;;;;9.10;1.70;;;18.60;71.80;;;;;;5031341;28;20491;-67
2021/12/28 12:01:58;;;;;;;5.10;1.23;;;18.60;71.70;;;;;;5031837;28;20041;-67
2021/12/28 12:04:31;;;;;;;5.38;1.48;;;18.60;71.50;;;;;;5031685;28;20417;-67
2021/12/28 12:06:59;;;;;;;10.57;1.60;;;18.60;71.50;;;;;;5032691;28;20033;-68
2021/12/28 12:09:26;;;;;;;5.10;1.52;;;18.60;71.10;;;;;;5035593;28;20045;-68
2021/12/28 12:12:18;;;;;;;6.57;1.63;;;18.60;71.10;;;;;;5018168;28;20048;-68
2021/12/28 12:14:58;;;;;;;5.03;1.30;;;18.60;71.30;;;;;;5035741;28;20087;-67
2021/12/28 12:17:39;;;;;;;5.93;1.25;;;18.60;71.10;;;;;;5035153;28;20041;-67
2021/12/28 12:20:10;;;;;;;4.45;1.20;;;18.60;71.40;;;;;;5035039;28;20044;-68
2021/12/28 12:22:38;;;;;;;5.72;1.33;;;18.60;71.20;;;;;;5035340;28;20595;-68
2021/12/28 12:25:12;;;;;;;4.57;1.30;;;18.60;71.30;;;;;;5035335;28;20083;-67
2021/12/28 12:27:56;;;;;;;6.32;1.40;;;18.60;71.10;;;;;;5035256;28;20044;-67
2021/12/28 12:30:28;;;;;;;7.00;1.30;;;18.60;71.00;;;;;;5018787;28;20060;-67
2021/12/28 12:33:09;;;;;;;7.68;3.97;;;18.60;71.20;;;;;;5034881;28;20048;-67
2021/12/28 12:35:36;;;;;;;6.18;2.13;;;18.60;71.40;;;;;;5034978;28;20036;-67
2021/12/28 12:38:26;;;;;;;4.55;1.60;;;18.60;71.50;;;;;;5035115;28;20507;-67
2021/12/28 12:40:59;;;;;;;7.72;1.50;;;18.60;71.10;;;;;;5023593;28;20042;-67
2021/12/28 12:43:27;;;;;;;7.28;1.40;;;18.60;71.20;;;;;;5035043;28;20025;-68
2021/12/28 12:46:05;;;;;;;6.63;1.27;;;18.60;72.00;;;;;;5035131;28;20033;-68
2021/12/28 12:48:39;;;;;;;4.22;1.33;;;18.60;71.30;;;;;;5034751;28;20041;-68
2021/12/28 12:51:24;;;;;;;6.40;1.73;;;18.60;72.10;;;;;;5034855;28;20034;-68
2021/12/28 12:54:16;;;;;;;9.25;1.20;;;18.60;72.30;;;;;;5034906;28;20095;-68
2021/12/28 12:56:44;;;;;;;9.30;1.70;;;18.60;72.90;;;;;;5034756;28;20042;-67
2021/12/28 12:59:31;;;;;;;5.93;1.38;;;18.50;71.80;;;;;;5034700;28;20034;-67
2021/12/28 13:02:03;;;;;;;7.07;1.77;;;18.50;71.80;;;;;;5034581;28;20045;-67
2021/12/28 13:04:31;;;;;;;5.90;1.73;;;18.50;71.70;;;;;;5034634;28;20033;-68
2021/12/28 13:07:07;;;;;;;11.15;1.75;;;18.40;71.80;;;;;;5034646;28;20030;-68
2021/12/28 13:09:36;;;;;;;7.60;1.75;;;18.30;72.10;;;;;;5034418;28;20430;-68
2021/12/28 13:12:07;;;;;;;9.40;1.77;;;18.30;72.10;;;;;;5017151;28;20108;-68
2021/12/28 13:14:34;;;;;;;7.75;1.73;;;18.30;72.00;;;;;;5034510;28;20318;-68
2021/12/28 13:17:05;;;;;;;4.13;1.35;;;18.30;72.00;;;;;;5016900;28;20221;-68
2021/12/28 13:19:38;;;;;;;7.53;1.98;;;18.30;72.30;;;;;;5032773;28;20121;-68
2021/12/28 13:22:07;;;;;;;8.27;2.15;;;18.30;72.20;;;;;;5034467;28;20025;-68
2021/12/28 13:24:41;;;;;;;5.72;1.40;;;18.20;72.10;;;;;;5034556;28;20120;-68
2021/12/28 13:27:10;;;;;;;6.00;1.60;;;18.20;72.00;;;;;;5034377;28;20038;-68
2021/12/28 13:29:39;;;;;;;9.50;1.60;;;18.20;72.20;;;;;;5016620;28;20041;-68
2021/12/28 13:32:21;;;;;;;3.78;1.70;;;18.20;72.30;;;;;;5033714;28;20496;-68
2021/12/28 13:35:11;;;;;;;10.18;1.75;;;18.10;72.20;;;;;;5017276;28;20037;-68
2021/12/28 13:37:43;;;;;;;10.45;2.00;;;18.10;72.40;;;;;;5034342;28;20041;-68
2021/12/28 13:40:19;;;;;;;5.07;1.88;;;18.10;72.40;;;;;;5033940;28;20527;-68
2021/12/28 13:42:49;;;;;;;6.68;1.80;;;18.00;72.30;;;;;;5033933;28;20065;-68
2021/12/28 13:45:38;;;;;;;10.00;2.28;;;18.00;72.00;;;;;;5033720;28;20033;-68
2021/12/28 13:48:14;;;;;;;5.75;1.42;;;17.90;72.20;;;;;;5033549;28;20060;-67
2021/12/28 13:50:41;;;;;;;6.55;1.75;;;17.90;71.90;;;;;;5033786;28;20037;-67
2021/12/28 13:53:13;;;;;;;3.85;1.48;;;17.90;72.30;;;;;;5016394;28;20021;-67
2021/12/28 13:55:40;;;;;;;8.55;2.15;;;17.80;71.90;;;;;;5015659;28;20491;-67
2021/12/28 13:58:19;;;;;;;9.45;1.95;;;17.80;72.50;;;;;;5015954;28;20033;-67
2021/12/28 14:00:52;;;;;;;7.90;1.70;;;17.70;71.80;;;;;;5033299;28;20041;-67
2021/12/28 14:03:21;;;;;;;7.68;1.83;;;17.70;71.50;;;;;;5033526;28;20025;-68
2021/12/28 14:05:49;;;;;;;5.30;1.50;;;17.70;71.60;;;;;;5033832;28;20037;-67
2021/12/28 14:08:16;;;;;;;5.80;1.42;;;17.60;71.40;;;;;;5033654;28;20476;-68
2021/12/28 14:10:44;;;;;;;5.25;1.75;;;17.60;72.00;;;;;;5015993;28;20496;-67
2021/12/28 14:13:16;;;;;;;4.25;1.55;;;17.60;72.00;;;;;;5015691;28;20034;-67
2021/12/28 14:15:54;;;;;;;4.35;1.60;;;17.60;72.10;;;;;;5015871;28;20037;-67
2021/12/28 14:18:36;;;;;;;8.77;1.63;;;17.50;71.70;;;;;;5016288;28;20103;-68
2021/12/28 14:21:16;;;;;;;5.20;1.60;;;17.50;71.60;;;;;;5033249;28;20033;-67
2021/12/28 14:23:45;;;;;;;9.32;1.70;;;17.40;71.10;;;;;;5033396;28;20030;-67
2021/12/28 14:26:17;;;;;;;6.43;1.27;;;17.40;71.20;;;;;;5032950;28;20045;-67
2021/12/28 14:28:53;;;;;;;6.38;1.50;;;17.30;70.90;;;;;;5032914;28;20079;-68
2021/12/28 14:31:22;;;;;;;5.63;1.58;;;17.30;71.90;;;;;;5016349;28;20025;-67
2021/12/28 14:33:53;;;;;;;6.88;1.30;;;17.20;71.90;;;;;;5033211;28;20033;-67
2021/12/28 14:36:21;;;;;;;5.00;1.40;;;17.20;70.90;;;;;;5032799;28;20515;-67
2021/12/28 14:38:48;;;;;;;3.40;1.20;;;17.20;71.30;;;;;;5033039;28;20095;-67
2021/12/28 14:41:26;;;;;;;8.02;1.42;;;17.20;71.40;;;;;;5014916;28;20464;-68
2021/12/28 14:44:27;;;;;;;5.93;1.42;;;17.20;72.00;;;;;;5032557;28;20111;-67
2021/12/28 14:46:53;;;;;;;;;;;17.10;71.50;;;;;;5015362;28;20033;-67
2021/12/28 14:49:29;;;;;;;13.13;1.83;;;17.10;71.80;;;;;;5032205;28;20258;-67
2021/12/28 14:52:18;;;;;;;6.07;1.40;;;17.10;71.90;;;;;;5032606;28;20045;-68
2021/12/28 14:55:14;;;;;;;6.57;1.42;;;17.00;72.50;;;;;;5015199;28;20076;-68
2021/12/28 14:57:54;;;;;;;7.10;1.40;;;17.00;72.00;;;;;;5032199;28;20042;-67
2021/12/28 15:00:26;;;;;;;3.73;1.13;;;16.90;71.50;;;;;;5015367;28;20175;-67
2021/12/28 15:02:57;;;;;;;7.32;1.63;;;16.90;71.60;;;;;;5032352;28;20551;-67
2021/12/28 15:05:30;;;;;;;6.07;1.45;;;16.90;71.30;;;;;;5032255;28;20042;-67
2021/12/28 15:08:17;;;;;;;3.25;1.17;;;16.80;71.60;;;;;;5031986;28;20037;-67
2021/12/28 15:10:49;;;;;;;5.43;1.42;;;16.80;72.30;;;;;;5031933;28;20541;-67
2021/12/28 15:13:18;;;;;;;4.15;1.23;;;16.80;72.50;;;;;;5015570;28;20121;-68
2021/12/28 15:15:45;;;;;;;7.47;1.25;;;16.90;72.30;;;;;;5032071;28;20091;-67
2021/12/28 15:18:13;;;;;;;5.03;1.42;;;16.80;72.00;;;;;;5014897;28;20091;-67
2021/12/28 15:20:41;;;;;;;6.22;1.40;;;16.80;72.50;;;;;;5014599;28;20037;-67
2021/12/28 15:23:08;;;;;;;4.85;1.15;;;16.80;72.30;;;;;;5032197;28;20029;-68
2021/12/28 15:25:35;;;;;;;4.50;1.20;;;16.80;73.50;;;;;;5031851;28;20038;-67
2021/12/28 15:28:03;;;;;;;5.57;1.00;;;16.70;72.70;;;;;;5032228;28;20104;-67
2021/12/28 15:30:35;;;;;;;7.25;1.38;;;16.70;73.00;;;;;;5014182;28;20068;-67
2021/12/28 15:33:02;;;;;;;3.60;1.33;;;16.70;72.90;;;;;;5013480;28;20049;-67
2021/12/28 15:35:40;;;;;;;9.13;1.70;;;16.70;73.10;;;;;;5031555;28;20037;-67
2021/12/28 15:38:08;;;;;;;3.92;1.30;;;16.70;73.30;;;;;;5030694;28;20093;-68
2021/12/28 15:41:04;;;;;;;5.97;1.50;;;16.70;73.50;;;;;;5031515;28;20072;-67
2021/12/28 15:43:31;;;;;;;6.45;1.45;;;16.70;73.50;;;;;;5011175;28;20411;-67
2021/12/28 15:45:58;;;;;;;4.95;1.30;;;16.70;73.80;;;;;;5031547;28;20120;-67
2021/12/28 15:48:26;;;;;;;7.07;1.67;;;16.70;73.80;;;;;;5014066;28;20092;-68
2021/12/28 15:50:54;;;;;;;6.57;1.33;;;16.70;73.40;;;;;;5013448;28;20080;-67
2021/12/28 15:53:21;;;;;;;5.30;1.40;;;16.70;72.60;;;;;;5014015;28;20025;-67
2021/12/28 15:55:51;;;;;;;5.13;1.30;;;16.70;73.00;;;;;;5032136;28;20041;-68
2021/12/28 15:58:18;;;;;;;5.40;1.73;;;16.60;72.80;;;;;;5031381;28;20048;-68
2021/12/28 16:00:45;;;;;;;6.93;1.60;;;16.70;72.80;;;;;;5031336;28;20496;-68
2021/12/28 16:03:13;;;;;;;4.28;1.20;;;16.70;72.70;;;;;;5031469;28;20522;-67
2021/12/28 16:05:40;;;;;;;7.53;1.40;;;16.70;72.60;;;;;;5031560;28;20125;-67
2021/12/28 16:08:07;;;;;;;6.82;1.15;;;16.70;73.20;;;;;;5031366;28;20388;-68
2021/12/28 16:10:34;;;;;;;4.13;1.17;;;16.70;73.30;;;;;;5013311;28;20080;-68
2021/12/28 16:13:02;;;;;;;5.63;1.40;;;16.70;73.10;;;;;;5031423;28;20091;-67
2021/12/28 16:15:29;;;;;;;7.57;1.38;;;16.70;73.40;;;;;;5031607;28;20049;-67
2021/12/28 16:17:56;;;;;;;5.85;1.52;;;16.70;73.70;;;;;;5013675;28;20480;-67
2021/12/28 16:20:23;;;;;;;6.20;1.10;;;16.70;73.30;;;;;;5031254;28;20091;-67
2021/12/28 16:22:52;;;;;;;6.57;1.38;;;16.70;72.90;;;;;;5013707;28;20038;-68
2021/12/28 16:25:19;;;;;;;6.10;1.40;;;16.70;73.50;;;;;;5031314;28;20034;-67
2021/12/28 16:27:46;;;;;;;3.80;1.52;;;16.70;72.60;;;;;;5031687;28;20038;-67
2021/12/28 16:30:25;;;;;;;6.07;1.60;;;16.70;73.10;;;;;;5031141;28;20044;-67
2021/12/28 16:32:52;;;;;;;4.75;1.27;;;16.70;73.80;;;;;;5031060;28;20450;-67
2021/12/28 16:35:19;;;;;;;6.85;1.38;;;16.70;72.70;;;;;;5030610;28;20129;-67
2021/12/28 16:37:47;;;;;;;6.32;1.35;;;16.70;73.50;;;;;;5013133;28;20048;-68
2021/12/28 16:40:14;;;;;;;6.22;1.27;;;16.70;73.30;;;;;;5031294;28;20030;-67
2021/12/28 16:42:41;;;;;;;11.10;2.05;;;16.70;73.30;;;;;;5031292;28;20049;-67
2021/12/28 16:45:10;;;;;;;7.32;1.40;;;16.60;73.50;;;;;;4997647;28;20040;-67
2021/12/28 16:47:38;;;;;;;3.28;1.35;;;16.70;73.20;;;;;;5031327;28;20070;-67
2021/12/28 16:50:06;;;;;;;5.72;1.30;;;16.60;73.60;;;;;;5031099;28;20111;-67
2021/12/28 16:52:33;;;;;;;4.38;1.25;;;16.60;73.40;;;;;;5032038;28;20098;-67
2021/12/28 16:55:01;;;;;;;4.53;1.48;;;16.60;72.80;;;;;;5034919;28;20429;-67
2021/12/28 16:57:29;;;;;;;7.15;1.63;;;16.60;73.20;;;;;;5034715;28;20033;-67
2021/12/28 16:59:56;;;;;;;5.78;1.67;;;16.60;73.00;;;;;;5035187;28;20395;-67
2021/12/28 17:02:23;;;;;;;6.55;1.50;;;16.60;73.40;;;;;;5034866;28;20175;-67
2021/12/28 17:04:51;;;;;;;3.88;1.02;;;16.60;72.90;;;;;;5034520;28;20384;-67
2021/12/28 17:07:18;;;;;;;3.92;1.25;;;16.60;72.80;;;;;;5017587;28;20460;-67
2021/12/28 17:09:45;;;;;;;5.47;1.20;;;16.60;72.40;;;;;;5034353;28;20041;-67
2021/12/28 17:12:13;;;;;;;4.93;1.30;;;16.60;72.70;;;;;;5017225;28;20132;-67
2021/12/28 17:14:40;;;;;;;9.52;1.52;;;16.60;73.10;;;;;;5035068;28;20034;-67
2021/12/28 17:17:07;;;;;;;5.18;1.27;;;16.60;73.50;;;;;;5034377;28;20034;-67
2021/12/28 17:19:34;;;;;;;3.00;1.30;;;16.60;73.50;;;;;;5034402;28;20060;-67
2021/12/28 17:22:02;;;;;;;5.95;1.45;;;16.60;73.70;;;;;;5017103;28;20518;-67
2021/12/28 17:24:29;;;;;;;6.75;1.20;;;16.60;73.80;;;;;;5034392;28;20033;-67
2021/12/28 17:26:56;;;;;;;6.25;1.40;;;16.50;73.20;;;;;;5034072;28;20041;-67
2021/12/28 17:29:24;;;;;;;4.80;1.33;;;16.60;72.80;;;;;;5034023;28;20392;-67
2021/12/28 17:31:51;;;;;;;3.60;1.20;;;16.60;72.80;;;;;;5016487;28;20049;-67
2021/12/28 17:34:18;;;;;;;5.95;1.45;;;16.60;72.90;;;;;;5016736;28;20072;-67
2021/12/28 17:36:46;;;;;;;7.15;1.65;;;16.60;72.80;;;;;;5016295;28;20048;-67
2021/12/28 17:39:14;;;;;;;5.55;1.40;;;16.70;73.10;;;;;;5034065;28;20030;-67
2021/12/28 17:41:41;;;;;;;3.15;1.05;;;16.60;73.50;;;;;;5033799;28;20030;-68
2021/12/28 17:44:10;;;;;;;5.97;1.58;;;16.70;74.00;;;;;;5032753;28;20061;-67
2021/12/28 17:46:38;;;;;;;5.03;1.27;;;16.70;73.70;;;;;;5016427;28;20033;-67
2021/12/28 17:49:05;;;;;;;6.47;1.63;;;16.60;73.50;;;;;;5033732;28;20439;-67
2021/12/28 17:51:36;;;;;;;5.05;1.05;;;16.60;73.30;;;;;;5033831;28;20045;-67
2021/12/28 17:54:04;;;;;;;4.40;1.23;;;16.60;74.30;;;;;;5033641;28;20492;-67
2021/12/28 17:56:31;;;;;;;2.97;0.98;;;16.60;74.50;;;;;;5033489;28;20029;-67
2021/12/28 17:58:58;;;;;;;7.82;1.60;;;16.60;74.50;;;;;;5016017;28;20116;-67
2021/12/28 18:01:26;;;;;;;4.63;1.50;;;16.50;74.50;;;;;;5033429;28;20038;-67
2021/12/28 18:03:56;;;;;;;5.80;1.30;;;16.50;75.10;;;;;;5033293;28;20022;-66
2021/12/28 18:06:24;;;;;;;6.88;1.58;;;16.50;75.10;;;;;;5033135;28;20413;-67
2021/12/28 18:08:52;;;;;;;3.42;1.27;;;16.50;75.20;;;;;;5033659;28;20029;-67
2021/12/28 18:11:19;;;;;;;6.45;1.40;;;16.50;74.90;;;;;;5033477;28;20160;-67
2021/12/28 18:13:46;;;;;;;4.35;1.10;;;16.50;75.20;;;;;;5033505;28;20048;-67
2021/12/28 18:16:18;;;;;;;6.47;1.25;;;16.50;74.80;;;;;;5033487;28;20026;-67
2021/12/28 18:18:45;;;;;;;4.90;1.58;;;16.60;75.00;;;;;;5033269;28;20494;-66
2021/12/28 18:21:13;;;;;;;4.90;1.25;;;16.60;74.90;;;;;;5015634;28;20061;-66
2021/12/28 18:23:41;;;;;;;6.38;1.38;;;16.60;74.80;;;;;;5033175;28;20440;-67
2021/12/28 18:26:09;;;;;;;6.38;1.50;;;16.70;75.10;;;;;;5015164;28;20029;-67
2021/12/28 18:28:37;;;;;;;4.60;1.65;;;16.70;75.80;;;;;;5015705;28;20419;-67
2021/12/28 18:31:04;;;;;;;4.20;1.17;;;16.70;75.70;;;;;;5032744;28;20049;-67
2021/12/28 18:33:32;;;;;;;7.32;1.48;;;16.70;75.50;;;;;;5032856;28;20060;-67
2021/12/28 18:36:01;;;;;;;5.63;1.20;;;16.70;76.10;;;;;;5033002;28;20465;-67
2021/12/28 18:38:31;;;;;;;2.25;1.10;;;16.70;76.30;;;;;;5032941;28;20061;-67
2021/12/28 18:40:59;;;;;;;7.15;1.30;;;16.70;77.10;;;;;;5032575;28;20488;-67
2021/12/28 18:43:26;;;;;;;5.40;1.45;;;16.70;77.20;;;;;;5032492;28;20067;-67
2021/12/28 18:45:54;;;;;;;3.38;1.30;;;16.80;77.60;;;;;;5032453;28;20029;-67
2021/12/28 18:48:21;;;;;;;5.95;1.40;;;16.80;78.40;;;;;;5032827;28;20037;-67
2021/12/28 18:50:50;;;;;;;5.53;1.40;;;16.80;79.10;;;;;;4998802;28;20049;-67
2021/12/28 18:53:17;;;;;;;6.25;1.42;;;16.80;79.30;;;;;;5032413;28;20034;-67
2021/12/28 18:55:49;;;;;;;8.70;1.50;;;16.80;79.70;;;;;;5032790;28;20029;-67
2021/12/28 18:58:17;;;;;;;6.63;1.40;;;16.80;80.20;;;;;;5032782;28;20034;-67
2021/12/28 19:00:44;;;;;;;5.78;1.42;;;16.80;80.50;;;;;;5032720;28;20029;-67
2021/12/28 19:03:11;;;;;;;6.90;1.50;;;16.80;80.80;;;;;;5032481;28;20041;-67
2021/12/28 19:05:38;;;;;;;5.75;1.50;;;16.80;81.70;;;;;;5032342;28;20038;-67